Time;durP1;ratioP1;P1;durP2;ratioP2;P2;SDS_P1;SDS_P2;PMS_P1;PMS_P2;Temp;Humidity;BMP_temperature;BMP_pressure;BME280_temperature;BME280_humidity;BME280_pressure;Samples;Min_cycle;Max_cycle;Signal;HPM_P1;HPM_P2
2024/02/23 00:02:14;;;;;;;5.20;5.00;;;7.90;31.40;;;;;;4940173;29;20208;-79
2024/02/23 00:04:39;;;;;;;5.10;5.00;;;7.90;32.40;;;;;;4947258;29;20318;-79
2024/02/23 00:07:05;;;;;;;5.40;5.20;;;8.10;31.60;;;;;;4946111;29;20664;-78
2024/02/23 00:09:30;;;;;;;5.10;4.80;;;8.10;31.80;;;;;;4920477;29;20612;-80
2024/02/23 00:11:56;;;;;;;5.33;5.20;;;8.20;31.00;;;;;;4930751;29;20184;-78
2024/02/23 00:14:21;;;;;;;5.27;5.17;;;8.10;30.90;;;;;;4953965;29;20584;-78
2024/02/23 00:16:47;;;;;;;5.47;5.30;;;8.10;30.90;;;;;;4939273;29;20208;-78
2024/02/23 00:19:13;;;;;;;5.30;5.20;;;8.10;30.90;;;;;;4934315;29;20813;-79
2024/02/23 00:21:39;;;;;;;5.00;4.90;;;8.20;30.40;;;;;;4928802;29;20759;-78
2024/02/23 00:24:06;;;;;;;5.87;5.67;;;8.10;30.80;;;;;;4961213;28;20548;-79
2024/02/23 00:26:32;;;;;;;5.17;5.00;;;8.00;30.80;;;;;;4944129;29;20974;-78
2024/02/23 00:28:57;;;;;;;5.40;5.20;;;8.00;30.80;;;;;;4948759;29;20454;-79
2024/02/23 00:31:23;;;;;;;5.30;5.20;;;8.00;30.80;;;;;;4942532;29;20190;-79
2024/02/23 00:33:48;;;;;;;5.37;5.17;;;8.10;31.60;;;;;;4943458;28;20404;-78
2024/02/23 00:36:14;;;;;;;5.50;5.40;;;8.10;30.90;;;;;;4947870;29;20207;-78
2024/02/23 00:38:39;;;;;;;4.83;4.73;;;8.10;31.30;;;;;;4947483;29;20184;-79
2024/02/23 00:41:05;;;;;;;5.40;5.30;;;8.10;30.00;;;;;;4939281;29;20189;-79
2024/02/23 00:43:38;;;;;;;5.93;5.73;;;8.10;30.90;;;;;;4939490;29;20211;-78
2024/02/23 00:46:04;;;;;;;5.93;5.67;;;8.10;30.90;;;;;;4947591;29;20467;-78
2024/02/23 00:48:30;;;;;;;5.40;5.10;;;8.10;30.90;;;;;;4946105;29;20493;-79
2024/02/23 00:50:55;;;;;;;5.63;5.33;;;8.10;30.90;;;;;;4938793;29;20591;-80
2024/02/23 00:53:21;;;;;;;5.80;5.60;;;8.10;30.00;;;;;;4935212;29;20207;-79
2024/02/23 00:55:47;;;;;;;5.40;5.10;;;8.10;30.90;;;;;;4943352;28;20640;-78
2024/02/23 00:58:13;;;;;;;5.40;5.30;;;8.20;31.00;;;;;;4950436;29;20431;-78
2024/02/23 01:00:38;;;;;;;5.30;5.10;;;8.20;30.70;;;;;;4937932;29;20192;-77
2024/02/23 01:03:05;;;;;;;4.73;4.60;;;8.20;29.80;;;;;;4936762;29;20204;-79
2024/02/23 01:05:30;;;;;;;5.07;4.87;;;8.30;29.60;;;;;;4939430;29;20183;-79
2024/02/23 01:07:55;;;;;;;4.80;4.60;;;8.30;29.70;;;;;;4946781;29;20462;-78
2024/02/23 01:10:21;;;;;;;4.83;4.63;;;8.40;28.70;;;;;;4933670;29;20776;-79
2024/02/23 01:12:47;;;;;;;5.20;5.10;;;8.40;29.90;;;;;;4920768;29;20231;-79
2024/02/23 01:15:12;;;;;;;5.20;4.90;;;8.40;29.00;;;;;;4943937;29;20441;-78
2024/02/23 01:17:38;;;;;;;6.03;5.57;;;8.50;29.20;;;;;;4920293;29;20206;-79
2024/02/23 01:20:04;;;;;;;6.10;5.80;;;8.60;28.10;;;;;;4927971;29;20189;-79
2024/02/23 01:22:30;;;;;;;4.90;4.70;;;8.60;28.90;;;;;;4944096;29;20906;-79
2024/02/23 01:24:55;;;;;;;5.10;4.73;;;8.40;28.10;;;;;;4960226;29;20446;-77
2024/02/23 01:27:21;;;;;;;6.40;6.10;;;8.50;28.80;;;;;;4941317;29;20202;-80
2024/02/23 01:29:47;;;;;;;5.33;5.13;;;8.60;28.70;;;;;;4946254;29;20207;-79
2024/02/23 01:32:13;;;;;;;5.47;5.17;;;8.70;28.90;;;;;;4939014;29;20427;-79
2024/02/23 01:34:38;;;;;;;5.93;5.73;;;8.70;28.20;;;;;;4932850;29;20200;-78
2024/02/23 01:37:04;;;;;;;5.73;5.53;;;8.80;28.20;;;;;;4938800;29;20215;-78
2024/02/23 01:39:29;;;;;;;5.53;5.33;;;8.70;27.90;;;;;;4945199;29;20180;-78
2024/02/23 01:41:55;;;;;;;5.60;5.30;;;8.80;27.80;;;;;;4947189;29;20188;-78
2024/02/23 01:44:21;;;;;;;5.37;5.13;;;8.90;28.20;;;;;;4940414;29;20632;-79
2024/02/23 01:46:47;;;;;;;5.50;5.20;;;8.90;28.00;;;;;;4943230;28;20231;-79
2024/02/23 01:49:13;;;;;;;5.63;5.43;;;8.80;27.20;;;;;;4949286;29;20795;-79
2024/02/23 01:51:39;;;;;;;5.73;5.43;;;8.80;27.40;;;;;;4948877;29;20859;-77
2024/02/23 01:54:06;;;;;;;6.23;5.77;;;8.70;28.10;;;;;;4940051;29;20443;-77
2024/02/23 01:56:33;;;;;;;5.80;5.50;;;8.70;28.20;;;;;;4944442;29;20291;-78
2024/02/23 01:58:59;;;;;;;5.60;5.40;;;8.80;28.20;;;;;;4917004;28;21207;-77
2024/02/23 02:01:25;;;;;;;6.50;6.10;;;9.00;27.60;;;;;;4931928;29;20530;-78
2024/02/23 02:03:51;;;;;;;5.73;5.53;;;8.90;26.80;;;;;;4939455;29;20454;-79
2024/02/23 02:06:17;;;;;;;4.90;4.80;;;8.80;27.80;;;;;;4952112;29;20465;-78
2024/02/23 02:08:43;;;;;;;5.77;5.50;;;8.80;27.30;;;;;;4940011;28;20302;-79
2024/02/23 02:11:08;;;;;;;5.00;4.70;;;8.90;27.60;;;;;;4954551;29;21105;-79
2024/02/23 02:13:34;;;;;;;5.17;4.80;;;8.80;28.10;;;;;;4921963;29;20215;-77
2024/02/23 02:16:00;;;;;;;5.13;4.83;;;8.80;28.40;;;;;;4929575;29;20226;-79
2024/02/23 02:18:26;;;;;;;5.70;5.40;;;8.80;28.10;;;;;;4949647;29;20211;-79
2024/02/23 02:20:55;;;;;;;5.60;5.30;;;8.90;27.60;;;;;;4940794;29;20433;-79
2024/02/23 02:23:20;;;;;;;5.67;5.40;;;8.80;27.20;;;;;;4943869;29;20295;-79
2024/02/23 02:25:53;;;;;;;5.50;5.20;;;8.70;27.30;;;;;;4939613;29;20506;-78
2024/02/23 02:28:18;;;;;;;5.80;5.50;;;8.80;27.80;;;;;;4946305;28;20226;-79
2024/02/23 02:30:44;;;;;;;5.30;5.10;;;8.80;27.30;;;;;;4929062;29;20818;-78
2024/02/23 02:33:09;;;;;;;5.90;5.67;;;8.70;28.10;;;;;;4930775;29;20208;-79
2024/02/23 02:35:35;;;;;;;5.53;5.10;;;8.70;28.60;;;;;;4943603;29;20286;-76
2024/02/23 02:38:00;;;;;;;6.10;5.80;;;8.50;27.30;;;;;;4946073;29;20311;-79
2024/02/23 02:40:26;;;;;;;5.83;5.63;;;8.50;27.80;;;;;;4945733;29;20187;-78
2024/02/23 02:42:51;;;;;;;6.40;6.20;;;8.60;28.00;;;;;;4939644;29;20595;-78
2024/02/23 02:45:17;;;;;;;5.90;5.70;;;8.60;27.70;;;;;;4950894;29;20195;-77
2024/02/23 02:47:43;;;;;;;6.13;5.93;;;8.50;26.90;;;;;;4951139;29;20251;-78
2024/02/23 02:50:09;;;;;;;5.93;5.73;;;8.50;26.40;;;;;;4940956;29;20499;-78
2024/02/23 02:52:34;;;;;;;6.30;6.00;;;8.40;26.70;;;;;;4946548;29;20196;-77
2024/02/23 02:55:00;;;;;;;6.33;6.13;;;8.30;26.30;;;;;;4949218;29;20574;-77
2024/02/23 02:57:25;;;;;;;5.90;5.60;;;8.30;26.80;;;;;;4938535;29;20183;-77
2024/02/23 02:59:51;;;;;;;6.00;5.70;;;8.30;26.30;;;;;;4937543;29;20307;-78
2024/02/23 03:02:17;;;;;;;6.37;6.07;;;8.20;25.70;;;;;;4948329;29;20184;-78
2024/02/23 03:04:49;;;;;;;6.23;5.93;;;8.10;26.30;;;;;;4944297;29;20429;-77
2024/02/23 03:07:16;;;;;;;6.40;6.20;;;8.20;26.70;;;;;;4915407;29;20737;-79
2024/02/23 03:09:42;;;;;;;6.17;5.87;;;8.30;26.40;;;;;;4939793;29;20466;-78
2024/02/23 03:12:07;;;;;;;5.93;5.73;;;8.30;25.50;;;;;;4934302;29;20516;-78
2024/02/23 03:14:33;;;;;;;6.67;6.37;;;8.40;25.80;;;;;;4933500;28;20568;-79
2024/02/23 03:16:59;;;;;;;6.17;5.97;;;8.40;24.90;;;;;;4939489;29;20715;-78
2024/02/23 03:19:25;;;;;;;6.73;6.10;;;8.50;25.10;;;;;;4941112;29;20420;-78
2024/02/23 03:21:51;;;;;;;5.83;5.60;;;8.60;24.50;;;;;;4940121;29;20447;-77
2024/02/23 03:24:17;;;;;;;6.37;6.17;;;8.70;24.60;;;;;;4940304;29;20432;-77
2024/02/23 03:26:42;;;;;;;6.13;5.83;;;8.70;23.40;;;;;;4958736;28;20175;-78
2024/02/23 03:29:09;;;;;;;6.53;6.23;;;8.60;23.90;;;;;;4949451;29;20667;-78
2024/02/23 03:31:34;;;;;;;6.70;6.40;;;8.60;24.50;;;;;;4938417;29;20183;-78
2024/02/23 03:34:00;;;;;;;6.37;6.17;;;8.60;23.20;;;;;;4955963;29;20439;-79
2024/02/23 03:36:26;;;;;;;6.40;6.20;;;8.70;23.60;;;;;;4944978;28;20183;-78
2024/02/23 03:38:52;;;;;;;5.90;5.70;;;8.90;23.20;;;;;;4929572;29;20204;-77
2024/02/23 03:41:17;;;;;;;5.90;5.70;;;8.80;23.00;;;;;;4947174;29;20450;-78
2024/02/23 03:43:43;;;;;;;6.33;6.13;;;9.00;22.80;;;;;;4945673;29;20474;-78
2024/02/23 03:46:08;;;;;;;6.70;6.50;;;9.10;21.70;;;;;;4935641;29;20267;-79
2024/02/23 03:48:34;;;;;;;6.50;6.20;;;9.20;21.30;;;;;;4940013;29;20239;-78
2024/02/23 03:51:00;;;;;;;6.43;6.23;;;9.20;20.70;;;;;;4939004;29;20180;-78
2024/02/23 03:53:25;;;;;;;6.83;6.53;;;8.90;20.70;;;;;;4933357;29;20228;-78
2024/02/23 03:55:51;;;;;;;6.33;6.13;;;8.90;20.90;;;;;;4934171;29;20202;-78
2024/02/23 03:58:16;;;;;;;6.20;6.00;;;8.90;20.70;;;;;;4945807;29;20184;-78
2024/02/23 04:00:43;;;;;;;6.30;6.10;;;8.90;21.00;;;;;;4951744;29;20168;-78
2024/02/23 04:03:08;;;;;;;6.97;6.30;;;8.80;21.30;;;;;;4945239;29;20400;-78
2024/02/23 04:05:34;;;;;;;6.53;6.33;;;8.70;20.60;;;;;;4938497;29;20451;-79
2024/02/23 04:07:59;;;;;;;7.97;7.57;;;8.70;21.10;;;;;;4941958;29;20184;-78
2024/02/23 04:10:25;;;;;;;6.30;6.10;;;8.90;21.00;;;;;;4933082;29;20219;-77
2024/02/23 04:12:50;;;;;;;7.43;7.23;;;9.00;20.30;;;;;;4940067;29;20205;-78
2024/02/23 04:15:16;;;;;;;7.03;6.83;;;9.20;20.70;;;;;;4936639;29;20183;-78
2024/02/23 04:17:41;;;;;;;7.47;7.17;;;9.30;20.20;;;;;;4948763;29;20215;-77
2024/02/23 04:20:11;;;;;;;8.13;7.77;;;9.30;19.10;;;;;;4939618;29;20215;-78
2024/02/23 04:22:38;;;;;;;7.30;7.10;;;9.00;19.80;;;;;;4937593;29;20239;-77
2024/02/23 04:25:04;;;;;;;8.13;7.73;;;9.20;20.30;;;;;;4952845;29;20422;-78
2024/02/23 04:27:30;;;;;;;7.70;7.23;;;9.30;20.80;;;;;;4947371;29;20894;-77
2024/02/23 04:29:56;;;;;;;7.40;7.00;;;9.40;19.70;;;;;;4941655;29;20490;-78
2024/02/23 04:32:22;;;;;;;6.70;6.40;;;9.60;19.20;;;;;;4945349;29;20203;-77
2024/02/23 04:34:47;;;;;;;6.70;6.50;;;9.90;18.30;;;;;;4944101;29;20175;-77
2024/02/23 04:37:13;;;;;;;6.93;6.63;;;10.00;17.00;;;;;;4948527;29;20247;-78
2024/02/23 04:39:41;;;;;;;7.10;6.80;;;10.20;16.40;;;;;;4940470;29;20190;-77
2024/02/23 04:42:08;;;;;;;6.63;6.43;;;10.00;16.80;;;;;;4945805;28;20179;-77
2024/02/23 04:44:34;;;;;;;7.00;6.70;;;9.70;16.80;;;;;;4945529;29;20447;-76
2024/02/23 04:47:00;;;;;;;7.00;6.70;;;9.60;16.90;;;;;;4946595;28;20493;-77
2024/02/23 04:49:25;;;;;;;6.53;6.30;;;9.60;17.20;;;;;;4937938;28;20575;-77
2024/02/23 04:51:51;;;;;;;7.00;6.67;;;9.60;17.90;;;;;;4940034;29;20203;-77
2024/02/23 04:54:16;;;;;;;7.20;6.80;;;9.60;17.90;;;;;;4940322;29;20286;-77
2024/02/23 04:56:42;;;;;;;7.37;7.00;;;9.40;17.00;;;;;;4916907;29;20181;-78
2024/02/23 04:59:07;;;;;;;7.77;7.40;;;9.50;17.50;;;;;;4931886;29;20196;-77
2024/02/23 05:01:37;;;;;;;7.47;7.07;;;9.60;17.10;;;;;;4954297;29;20184;-77
2024/02/23 05:04:03;;;;;;;6.97;6.77;;;9.80;17.70;;;;;;4943132;29;20203;-77
2024/02/23 05:06:29;;;;;;;7.67;7.00;;;9.80;17.70;;;;;;4939000;29;20820;-77
2024/02/23 05:08:55;;;;;;;6.60;6.40;;;10.00;16.30;;;;;;4945302;28;20459;-77
2024/02/23 05:11:20;;;;;;;7.50;7.10;;;9.90;17.60;;;;;;4947392;29;20429;-78
2024/02/23 05:13:46;;;;;;;7.60;7.10;;;9.70;18.00;;;;;;4936075;29;20289;-77
2024/02/23 05:16:14;;;;;;;8.00;7.43;;;9.70;17.30;;;;;;4941669;29;20304;-77
2024/02/23 05:18:40;;;;;;;7.40;7.10;;;9.80;17.60;;;;;;4918904;29;20424;-78
2024/02/23 05:21:05;;;;;;;6.70;6.40;;;9.80;16.90;;;;;;4942253;29;20420;-77
2024/02/23 05:23:31;;;;;;;6.60;6.30;;;9.70;16.80;;;;;;4943351;29;20472;-76
2024/02/23 05:25:56;;;;;;;6.67;6.47;;;9.40;16.80;;;;;;4944997;29;20218;-77
2024/02/23 05:28:22;;;;;;;7.17;6.87;;;9.20;18.00;;;;;;4942525;29;20195;-77
2024/02/23 05:30:47;;;;;;;7.37;7.07;;;9.00;18.00;;;;;;4931426;29;20264;-77
2024/02/23 05:33:13;;;;;;;6.90;6.57;;;9.00;18.60;;;;;;4925259;29;20204;-77
2024/02/23 05:35:38;;;;;;;7.67;7.37;;;8.90;18.40;;;;;;4943807;29;20185;-78
2024/02/23 05:38:06;;;;;;;6.83;6.53;;;8.80;19.00;;;;;;4930084;29;20754;-78
2024/02/23 05:40:32;;;;;;;7.83;7.33;;;8.50;20.90;;;;;;4953567;29;20756;-77
2024/02/23 05:42:58;;;;;;;7.97;7.57;;;8.40;21.90;;;;;;4947912;29;20506;-78
2024/02/23 05:45:23;;;;;;;7.87;7.47;;;8.30;22.70;;;;;;4958585;28;20491;-77
2024/02/23 05:47:49;;;;;;;7.93;7.53;;;8.30;22.80;;;;;;4958570;29;20199;-77
2024/02/23 05:50:15;;;;;;;7.20;6.90;;;8.20;23.80;;;;;;4951476;29;20210;-77
2024/02/23 05:52:40;;;;;;;7.80;7.40;;;8.20;24.10;;;;;;4946641;29;20262;-78
2024/02/23 05:55:07;;;;;;;8.50;7.80;;;8.30;23.10;;;;;;4940979;29;20551;-79
2024/02/23 05:57:33;;;;;;;7.63;7.20;;;8.30;23.30;;;;;;4947461;29;20683;-79
2024/02/23 05:59:58;;;;;;;7.07;6.67;;;8.30;22.80;;;;;;4948802;29;20423;-77
2024/02/23 06:02:24;;;;;;;7.00;6.70;;;8.30;22.20;;;;;;4933199;29;20188;-77
2024/02/23 06:04:49;;;;;;;7.60;7.20;;;8.30;21.70;;;;;;4946934;29;20643;-76
2024/02/23 06:07:18;;;;;;;6.20;6.00;;;8.30;21.20;;;;;;4958062;29;20186;-77
2024/02/23 06:09:46;;;;;;;7.20;6.90;;;8.20;21.00;;;;;;4939160;29;20207;-77
2024/02/23 06:12:11;;;;;;;7.40;7.00;;;8.00;20.90;;;;;;4946033;29;20411;-77
2024/02/23 06:14:37;;;;;;;7.43;7.13;;;8.00;21.80;;;;;;4945020;29;20534;-77
2024/02/23 06:17:03;;;;;;;7.70;7.33;;;7.90;21.10;;;;;;4932029;29;20176;-77
2024/02/23 06:19:29;;;;;;;8.20;7.73;;;7.90;21.50;;;;;;4929400;29;20183;-78
2024/02/23 06:21:54;;;;;;;7.70;7.30;;;7.90;21.90;;;;;;4953368;29;20429;-77
2024/02/23 06:24:20;;;;;;;7.63;7.33;;;7.80;22.50;;;;;;4949276;29;20206;-78
2024/02/23 06:26:46;;;;;;;7.20;6.80;;;8.00;22.20;;;;;;4951175;29;20183;-78
2024/02/23 06:29:12;;;;;;;7.47;7.27;;;8.10;22.70;;;;;;4941093;29;20228;-77
2024/02/23 06:31:38;;;;;;;7.60;7.30;;;8.30;22.40;;;;;;4920196;29;20428;-78
2024/02/23 06:34:05;;;;;;;8.30;7.83;;;8.30;22.40;;;;;;4927388;29;20932;-78
2024/02/23 06:36:30;;;;;;;7.27;6.87;;;8.20;22.80;;;;;;4934017;29;20905;-78
2024/02/23 06:38:56;;;;;;;7.60;7.30;;;8.00;23.70;;;;;;4924136;29;20438;-78
2024/02/23 06:41:22;;;;;;;7.80;7.50;;;7.90;24.20;;;;;;4937932;29;20199;-79
2024/02/23 06:43:47;;;;;;;6.43;6.23;;;7.80;24.80;;;;;;4929053;29;20275;-79
2024/02/23 06:46:13;;;;;;;7.67;7.40;;;7.90;24.80;;;;;;4957178;29;20255;-78
2024/02/23 06:48:38;;;;;;;8.10;7.60;;;7.90;25.00;;;;;;4938679;29;20238;-77
2024/02/23 06:51:09;;;;;;;7.60;7.20;;;7.90;25.40;;;;;;4945504;29;20188;-77
2024/02/23 06:53:35;;;;;;;7.30;7.00;;;7.90;25.90;;;;;;4956707;29;20630;-77
2024/02/23 06:56:01;;;;;;;7.93;7.53;;;7.80;25.90;;;;;;4942608;28;20786;-79
2024/02/23 06:58:29;;;;;;;8.10;7.70;;;7.80;25.80;;;;;;4949729;29;20424;-78
2024/02/23 07:00:54;;;;;;;7.53;7.20;;;7.70;26.10;;;;;;4948660;29;20235;-78
2024/02/23 07:03:20;;;;;;;8.13;7.80;;;7.90;25.80;;;;;;4936452;29;20448;-78
2024/02/23 07:05:47;;;;;;;8.03;7.73;;;7.90;25.90;;;;;;4920070;29;20573;-78
2024/02/23 07:08:12;;;;;;;8.17;7.87;;;8.00;26.00;;;;;;4918876;29;20236;-78
2024/02/23 07:10:38;;;;;;;7.67;7.37;;;7.90;26.00;;;;;;4928492;29;20471;-79
2024/02/23 07:13:03;;;;;;;7.77;7.47;;;7.70;26.50;;;;;;4952317;29;20209;-78
2024/02/23 07:15:29;;;;;;;7.47;7.00;;;7.70;26.50;;;;;;4947725;29;20188;-78
2024/02/23 07:17:55;;;;;;;7.53;7.13;;;7.60;26.80;;;;;;4934049;28;20578;-78
2024/02/23 07:20:21;;;;;;;7.40;7.10;;;7.50;27.10;;;;;;4936980;29;20320;-78
2024/02/23 07:22:47;;;;;;;7.80;7.20;;;7.50;27.30;;;;;;4944948;28;20308;-77
2024/02/23 07:25:22;;;;;;;7.00;6.70;;;7.50;27.60;;;;;;4937278;29;20544;-76
2024/02/23 07:27:48;;;;;;;6.93;6.60;;;7.50;27.50;;;;;;4941428;29;20427;-78
2024/02/23 07:30:16;;;;;;;7.30;7.10;;;7.60;27.00;;;;;;4928789;29;20460;-78
2024/02/23 07:32:41;;;;;;;7.70;7.30;;;7.70;27.10;;;;;;4946421;29;20445;-77
2024/02/23 07:35:16;;;;;;;8.10;7.80;;;7.80;26.50;;;;;;4934302;29;20503;-77
2024/02/23 07:37:41;;;;;;;7.70;7.30;;;7.80;26.00;;;;;;4930896;29;20195;-78
2024/02/23 07:40:07;;;;;;;7.40;7.10;;;7.60;26.50;;;;;;4935019;29;20424;-80
2024/02/23 07:42:35;;;;;;;7.40;6.90;;;7.60;26.50;;;;;;4955779;29;20214;-78
2024/02/23 07:45:04;;;;;;;8.00;7.60;;;7.50;26.50;;;;;;4943456;29;20773;-78
2024/02/23 07:47:33;;;;;;;7.80;7.40;;;7.40;27.30;;;;;;4948949;29;20420;-78
2024/02/23 07:49:59;;;;;;;7.90;7.60;;;7.50;27.20;;;;;;4948169;29;20459;-78
2024/02/23 07:52:25;;;;;;;7.87;7.47;;;7.60;27.00;;;;;;4942356;29;20427;-78
2024/02/23 07:54:52;;;;;;;7.53;7.23;;;7.70;26.20;;;;;;4943657;29;20176;-78
2024/02/23 07:57:18;;;;;;;8.40;7.80;;;7.70;26.00;;;;;;4934347;29;20553;-77
2024/02/23 07:59:44;;;;;;;7.43;7.13;;;7.70;26.40;;;;;;4944473;29;20419;-77
2024/02/23 08:02:10;;;;;;;7.47;6.97;;;7.60;25.80;;;;;;4942508;28;20493;-77
2024/02/23 08:04:36;;;;;;;7.70;7.20;;;7.50;26.40;;;;;;4947494;29;20185;-78
2024/02/23 08:07:01;;;;;;;8.27;7.87;;;7.60;26.20;;;;;;4931690;29;20218;-78
2024/02/23 08:09:27;;;;;;;8.30;7.70;;;7.60;26.10;;;;;;4930564;29;20487;-77
2024/02/23 08:11:52;;;;;;;8.43;8.03;;;7.50;26.40;;;;;;4928770;29;20233;-78
2024/02/23 08:14:18;;;;;;;7.80;7.50;;;7.40;26.70;;;;;;4940550;29;20219;-77
2024/02/23 08:16:43;;;;;;;8.13;7.57;;;7.40;27.40;;;;;;4935501;29;20175;-76
2024/02/23 08:19:09;;;;;;;8.60;8.00;;;7.50;27.10;;;;;;4931651;29;20258;-77
2024/02/23 08:21:34;;;;;;;7.60;7.30;;;7.30;26.90;;;;;;4935671;29;20184;-77
2024/02/23 08:24:00;;;;;;;7.43;7.13;;;7.40;27.10;;;;;;4939662;29;20199;-77
2024/02/23 08:26:25;;;;;;;7.97;7.57;;;7.50;26.70;;;;;;4949370;29;20242;-78
2024/02/23 08:28:51;;;;;;;8.00;7.67;;;7.40;26.90;;;;;;4944856;29;20200;-77
2024/02/23 08:31:17;;;;;;;8.63;8.30;;;7.50;26.60;;;;;;4939013;29;20200;-78
2024/02/23 08:33:43;;;;;;;7.80;7.50;;;7.60;26.00;;;;;;4944491;29;20979;-78
2024/02/23 08:36:10;;;;;;;7.30;6.90;;;7.60;25.70;;;;;;4949987;29;20234;-78
2024/02/23 08:38:36;;;;;;;7.10;6.80;;;7.60;25.80;;;;;;4925727;28;20176;-78
2024/02/23 08:41:02;;;;;;;7.63;7.33;;;7.70;24.90;;;;;;4925295;29;20421;-78
2024/02/23 08:43:28;;;;;;;7.80;7.50;;;7.70;25.30;;;;;;4925464;29;20216;-77
2024/02/23 08:45:53;;;;;;;8.50;8.00;;;7.70;24.90;;;;;;4918282;29;20980;-77
2024/02/23 08:48:19;;;;;;;9.17;8.67;;;7.60;24.70;;;;;;4924828;29;20188;-78
2024/02/23 08:51:00;;;;;;;8.40;8.00;;;7.50;24.90;;;;;;4952705;23;20251;-82
2024/02/23 08:53:43;;;;;;;8.00;7.60;;;7.40;25.10;;;;;;4942357;29;20664;-82
2024/02/23 09:00:01;;;;;;;9.50;8.80;;;7.60;24.90;;;;;;4881156;29;20878;-80
2024/02/23 09:02:49;;;;;;;7.90;7.40;;;7.60;24.40;;;;;;4885639;29;20470;-80
2024/02/23 09:05:18;;;;;;;8.03;7.63;;;7.50;23.80;;;;;;4937417;29;20432;-81
2024/02/23 09:07:45;;;;;;;8.47;7.97;;;7.30;23.90;;;;;;4924295;29;20511;-81
2024/02/23 09:10:13;;;;;;;8.60;8.10;;;7.20;24.10;;;;;;4933987;29;20480;-79
2024/02/23 09:12:47;;;;;;;8.00;7.60;;;7.10;24.00;;;;;;4932327;29;20468;-82
2024/02/23 09:15:12;;;;;;;7.87;7.50;;;7.10;23.60;;;;;;4934433;29;20475;-82
2024/02/23 09:17:41;;;;;;;8.83;8.33;;;7.10;23.80;;;;;;4937980;29;20462;-82
2024/02/23 09:20:10;;;;;;;8.47;7.97;;;7.20;23.90;;;;;;4928689;29;20546;-81
2024/02/23 09:23:15;;;;;;;7.87;7.47;;;7.20;23.60;;;;;;4930999;29;20443;-80
2024/02/23 09:25:48;;;;;;;7.90;7.43;;;7.20;23.10;;;;;;4945436;29;20438;-81
2024/02/23 09:28:14;;;;;;;8.67;7.93;;;7.20;23.40;;;;;;4943376;29;20423;-79
2024/02/23 09:31:11;;;;;;;7.90;7.60;;;7.20;23.30;;;;;;4941479;29;20482;-81
2024/02/23 09:33:40;;;;;;;8.33;7.60;;;7.40;22.80;;;;;;4903624;29;20480;-82
2024/02/23 09:36:09;;;;;;;7.90;7.50;;;7.40;22.60;;;;;;4934073;29;20499;-81
2024/02/23 09:41:34;;;;;;;8.00;7.60;;;7.40;22.80;;;;;;4924875;29;20438;-80
2024/02/23 09:44:02;;;;;;;8.10;7.60;;;7.40;22.50;;;;;;4929027;29;20518;-80
2024/02/23 09:46:43;;;;;;;7.67;7.37;;;7.50;22.40;;;;;;4913682;29;20447;-80
2024/02/23 09:49:50;;;;;;;7.50;7.00;;;7.40;22.30;;;;;;4919713;29;20464;-84
2024/02/23 09:52:16;;;;;;;7.00;6.60;;;7.40;22.30;;;;;;4930654;29;20467;-83
2024/02/23 09:54:42;;;;;;;8.17;7.70;;;7.40;22.30;;;;;;4932859;29;20425;-81
2024/02/23 09:57:10;;;;;;;7.93;7.33;;;7.50;22.90;;;;;;4920976;29;20438;-82
2024/02/23 09:59:36;;;;;;;8.67;7.90;;;7.50;22.30;;;;;;4926860;29;20439;-81
2024/02/23 10:02:09;;;;;;;7.83;7.27;;;7.60;22.40;;;;;;4926673;29;20518;-80
2024/02/23 10:04:36;;;;;;;7.90;7.47;;;7.70;21.70;;;;;;4929123;29;20427;-80
2024/02/23 10:07:04;;;;;;;7.50;7.13;;;7.80;21.60;;;;;;4913947;29;20428;-79
2024/02/23 10:09:55;;;;;;;7.93;7.43;;;7.90;21.50;;;;;;4925205;29;20528;-81
2024/02/23 10:12:37;;;;;;;7.43;7.03;;;8.10;20.10;;;;;;4917515;29;20453;-80
2024/02/23 10:15:07;;;;;;;8.70;8.20;;;8.10;20.60;;;;;;4924078;29;20425;-82
2024/02/23 10:17:50;;;;;;;7.27;6.87;;;8.20;21.10;;;;;;4921495;29;20424;-80
2024/02/23 10:20:23;;;;;;;7.07;6.57;;;8.20;19.80;;;;;;4932074;29;20431;-80
2024/02/23 10:22:53;;;;;;;7.10;6.63;;;8.10;19.60;;;;;;4932991;29;20974;-80
2024/02/23 10:25:19;;;;;;;8.03;7.43;;;8.10;20.00;;;;;;4921948;29;20477;-80
2024/02/23 10:27:57;;;;;;;8.17;7.77;;;8.20;19.90;;;;;;4938616;29;20438;-81
2024/02/23 10:30:23;;;;;;;8.53;7.93;;;8.30;20.30;;;;;;4936914;29;20467;-81
2024/02/23 10:33:15;;;;;;;7.17;6.67;;;8.30;19.20;;;;;;4941555;29;20420;-81
2024/02/23 10:35:44;;;;;;;7.13;6.83;;;8.40;19.20;;;;;;4938714;29;20176;-81
2024/02/23 10:38:35;;;;;;;7.50;7.10;;;8.50;19.50;;;;;;4941558;29;20407;-81
2024/02/23 10:41:31;;;;;;;7.57;6.87;;;8.60;18.80;;;;;;4940934;29;20447;-82
2024/02/23 10:43:59;;;;;;;7.80;7.20;;;8.70;18.50;;;;;;4943418;29;20431;-80
2024/02/23 10:47:02;;;;;;;7.10;6.63;;;8.70;18.60;;;;;;4928389;29;20429;-83
2024/02/23 10:49:31;;;;;;;8.77;7.60;;;8.70;19.20;;;;;;4930032;29;20471;-82
2024/02/23 10:52:21;;;;;;;7.73;7.33;;;8.70;18.20;;;;;;4933558;29;20463;-83
2024/02/23 10:54:56;;;;;;;7.73;7.03;;;8.70;18.60;;;;;;4908066;29;20428;-80
2024/02/23 10:57:23;;;;;;;7.13;6.73;;;8.80;18.70;;;;;;4947031;29;20478;-82
2024/02/23 11:00:18;;;;;;;8.30;7.60;;;8.70;18.20;;;;;;4931856;29;20859;-82
2024/02/23 11:02:56;;;;;;;6.80;6.53;;;8.60;18.20;;;;;;4923129;29;20448;-81
2024/02/23 11:05:38;;;;;;;6.47;6.07;;;8.50;18.70;;;;;;4933681;29;20447;-82
2024/02/23 11:08:41;;;;;;;7.13;6.60;;;8.40;18.20;;;;;;4922354;29;20439;-82
2024/02/23 11:12:42;;;;;;;8.73;7.97;;;8.40;18.70;;;;;;4939508;29;20546;-83
2024/02/23 11:15:58;;;;;;;7.30;6.90;;;8.40;18.50;;;;;;4888861;29;20441;-82
2024/02/23 11:18:43;;;;;;;7.13;6.70;;;8.40;18.50;;;;;;4901814;29;20418;-82
2024/02/23 11:21:52;;;;;;;8.23;7.47;;;8.40;18.30;;;;;;4879046;29;20455;-83
2024/02/23 11:24:28;;;;;;;9.47;8.87;;;8.50;18.50;;;;;;4878924;29;20426;-81
2024/02/23 11:27:49;;;;;;;8.30;7.77;;;8.70;18.90;;;;;;4876134;29;20466;-81
2024/02/23 11:30:26;;;;;;;7.30;6.77;;;8.60;17.30;;;;;;4889894;29;21321;-82
2024/02/23 11:33:05;;;;;;;10.80;9.90;;;8.60;18.40;;;;;;4879191;29;20492;-83
2024/02/23 11:35:49;;;;;;;7.10;6.40;;;8.60;17.40;;;;;;4897681;29;20452;-82
2024/02/23 11:38:26;;;;;;;6.67;6.17;;;8.70;18.20;;;;;;4937634;29;20428;-81
2024/02/23 11:41:14;;;;;;;6.77;6.30;;;8.80;17.80;;;;;;4945268;29;20455;-82
2024/02/23 11:44:07;;;;;;;7.30;6.90;;;9.00;17.70;;;;;;4936938;29;20425;-81
2024/02/23 11:47:00;;;;;;;7.50;6.83;;;9.10;17.50;;;;;;4947319;29;20430;-80
2024/02/23 11:49:35;;;;;;;6.70;6.30;;;9.10;16.80;;;;;;4948705;29;20521;-81
2024/02/23 11:55:47;;;;;;;6.97;6.57;;;9.10;16.70;;;;;;4942116;29;20392;-81
2024/02/23 11:58:55;;;;;;;7.20;6.80;;;9.00;16.90;;;;;;4936544;29;20439;-81
2024/02/23 12:01:32;;;;;;;7.53;7.13;;;8.90;16.70;;;;;;4923846;29;20456;-81
2024/02/23 12:04:01;;;;;;;7.17;6.87;;;9.10;17.10;;;;;;4946521;29;20796;-81
2024/02/23 12:06:56;;;;;;;7.40;7.00;;;9.10;16.80;;;;;;4938684;29;20535;-81
2024/02/23 12:09:48;;;;;;;7.57;7.07;;;9.10;16.50;;;;;;4933790;29;20468;-81
2024/02/23 12:12:35;;;;;;;7.03;6.73;;;9.10;16.90;;;;;;4938157;29;20506;-81
2024/02/23 12:15:04;;;;;;;7.47;6.90;;;9.10;16.70;;;;;;4939110;29;20424;-81
2024/02/23 12:17:55;;;;;;;7.47;7.07;;;9.10;16.40;;;;;;4934216;29;20940;-81
2024/02/23 12:20:56;;;;;;;8.43;7.73;;;9.00;16.60;;;;;;4931368;29;20436;-82
2024/02/23 12:23:40;;;;;;;7.70;7.20;;;9.00;17.00;;;;;;4936457;29;20427;-82
2024/02/23 12:26:08;;;;;;;7.37;6.90;;;9.20;17.10;;;;;;4937729;29;20432;-82
2024/02/23 12:28:42;;;;;;;7.30;6.90;;;9.30;16.60;;;;;;4936920;29;20451;-82
2024/02/23 12:31:44;;;;;;;7.90;7.30;;;9.30;16.50;;;;;;4936623;29;20538;-83
2024/02/23 12:37:31;;;;;;;7.67;6.83;;;9.40;16.20;;;;;;4937950;29;20416;-82
2024/02/23 12:43:57;;;;;;;8.03;7.43;;;9.40;15.20;;;;;;4930870;29;20440;-82
2024/02/23 12:46:08;;;;;;;7.47;7.07;;;9.20;16.20;;;;;;4929040;29;20437;-82
2024/02/23 12:49:00;;;;;;;8.07;7.37;;;9.30;16.30;;;;;;4931987;29;20459;-82
2024/02/23 12:51:49;;;;;;;;;;;;;;;;;;;;;
2024/02/23 12:54:23;;;;;;;8.20;7.53;;;9.20;16.20;;;;;;4939396;29;20514;-82
2024/02/23 12:56:49;;;;;;;8.17;7.57;;;9.30;16.00;;;;;;4938125;29;20519;-81
2024/02/23 12:59:22;;;;;;;8.13;7.63;;;9.40;16.10;;;;;;4937677;29;20440;-82
2024/02/23 13:01:49;;;;;;;7.97;7.57;;;9.50;15.60;;;;;;4939572;29;20294;-82
2024/02/23 13:04:17;;;;;;;7.17;6.73;;;9.60;15.70;;;;;;4939929;29;20431;-82
2024/02/23 13:06:44;;;;;;;7.50;7.00;;;9.60;15.40;;;;;;4939800;29;20421;-81
2024/02/23 13:09:19;;;;;;;7.23;6.73;;;9.50;16.10;;;;;;4936185;29;20499;-83
2024/02/23 13:11:51;;;;;;;6.93;6.53;;;9.20;16.90;;;;;;4938300;29;20470;-82
2024/02/23 13:14:17;;;;;;;7.57;7.07;;;9.20;17.20;;;;;;4938483;29;20430;-81
2024/02/23 13:16:58;;;;;;;7.47;7.07;;;9.30;18.10;;;;;;4938245;29;20428;-81
2024/02/23 13:19:59;;;;;;;7.03;6.63;;;9.30;17.40;;;;;;4934277;29;20439;-82
2024/02/23 13:22:45;;;;;;;8.23;7.73;;;9.50;17.60;;;;;;4927838;29;20884;-81
2024/02/23 13:25:12;;;;;;;7.10;6.63;;;9.50;17.10;;;;;;4919395;29;20439;-80
2024/02/23 13:27:38;;;;;;;7.40;6.93;;;9.50;16.80;;;;;;4933832;29;20425;-80
2024/02/23 13:30:05;;;;;;;7.80;7.30;;;9.40;16.50;;;;;;4950141;29;21285;-80
2024/02/23 13:32:38;;;;;;;6.77;6.47;;;9.40;16.60;;;;;;4943803;29;20224;-82